createdAt,value
2018-04-22T00:01:13.413Z,18.00
2018-04-22T00:03:41.480Z,18.00
2018-04-22T00:06:09.540Z,18.00
2018-04-22T00:08:37.621Z,17.90
2018-04-22T00:11:05.697Z,18.00
2018-04-22T00:13:33.796Z,18.10
2018-04-22T00:16:01.827Z,18.20
2018-04-22T00:18:29.905Z,18.40
2018-04-22T00:20:57.964Z,18.20
2018-04-22T00:23:26.042Z,18.20
2018-04-22T00:25:54.105Z,18.20
2018-04-22T00:28:22.188Z,18.10
2018-04-22T00:30:50.249Z,18.10
2018-04-22T00:33:18.318Z,18.00
2018-04-22T00:35:46.380Z,17.90
2018-04-22T00:38:14.473Z,17.70
2018-04-22T00:40:42.544Z,17.40
2018-04-22T00:43:10.620Z,17.30
2018-04-22T00:45:38.751Z,17.20
2018-04-22T00:48:06.824Z,17.20
2018-04-22T00:50:34.916Z,17.30
2018-04-22T00:53:02.987Z,17.20
2018-04-22T00:55:31.048Z,17.10
2018-04-22T00:57:59.132Z,17.10
2018-04-22T01:00:28.318Z,17.20
2018-04-22T01:02:56.388Z,17.20
2018-04-22T01:05:24.457Z,17.10
2018-04-22T01:07:52.529Z,17.00
2018-04-22T01:10:20.584Z,17.00
2018-04-22T01:12:48.648Z,17.00
2018-04-22T01:15:16.709Z,17.10
2018-04-22T01:17:44.772Z,17.20
2018-04-22T01:20:12.832Z,17.20
2018-04-22T01:22:40.913Z,17.20
2018-04-22T01:25:09.014Z,17.60
2018-04-22T01:27:37.046Z,17.60
2018-04-22T01:30:05.128Z,17.30
2018-04-22T01:32:33.189Z,17.30
2018-04-22T01:35:01.257Z,17.50
2018-04-22T01:37:29.320Z,17.50
2018-04-22T01:39:57.408Z,17.40
2018-04-22T01:42:25.482Z,17.40
2018-04-22T01:44:53.552Z,17.30
2018-04-22T01:47:22.560Z,17.30
2018-04-22T01:49:50.629Z,17.30
2018-04-22T01:52:18.688Z,17.30
2018-04-22T01:54:46.757Z,17.40
2018-04-22T01:57:14.816Z,17.40
2018-04-22T01:59:42.884Z,17.00
2018-04-22T02:02:10.959Z,16.90
2018-04-22T02:04:39.030Z,16.60
2018-04-22T02:07:07.092Z,16.40
2018-04-22T02:09:35.164Z,16.20
2018-04-22T02:12:03.262Z,16.10
2018-04-22T02:14:31.309Z,16.10
2018-04-22T02:17:00.359Z,16.30
2018-04-22T02:19:28.776Z,16.50
2018-04-22T02:21:56.863Z,16.60
2018-04-22T02:24:24.974Z,16.60
2018-04-22T02:26:53.076Z,16.70
2018-04-22T02:29:21.141Z,16.70
2018-04-22T02:31:49.205Z,16.70
2018-04-22T02:34:17.277Z,16.40
2018-04-22T02:36:45.335Z,16.40
2018-04-22T02:39:13.400Z,16.50
2018-04-22T02:41:41.470Z,16.40
2018-04-22T02:44:09.544Z,16.50
2018-04-22T02:46:37.617Z,16.60
2018-04-22T02:49:05.687Z,16.80
2018-04-22T02:51:33.800Z,16.80
2018-04-22T02:54:01.868Z,16.80
2018-04-22T02:56:29.928Z,16.70
2018-04-22T02:58:57.997Z,16.50
2018-04-22T03:01:26.060Z,16.50
2018-04-22T03:03:54.139Z,16.50
2018-04-22T03:06:23.128Z,16.40
2018-04-22T03:08:51.193Z,16.40
2018-04-22T03:11:19.248Z,16.40
2018-04-22T03:13:47.317Z,16.20
2018-04-22T03:16:15.377Z,16.10
2018-04-22T03:18:43.444Z,16.10
2018-04-22T03:21:11.524Z,15.90
2018-04-22T03:23:39.592Z,15.90
2018-04-22T03:26:07.656Z,15.90
2018-04-22T03:28:35.721Z,15.90
2018-04-22T03:31:03.796Z,15.90
2018-04-22T03:33:31.872Z,15.80
2018-04-22T03:35:59.949Z,15.60
2018-04-22T03:38:28.661Z,16.10
2018-04-22T03:40:56.728Z,16.20
2018-04-22T03:43:24.811Z,16.10
2018-04-22T03:45:53.407Z,16.00
2018-04-22T03:48:21.484Z,16.00
2018-04-22T03:50:49.536Z,15.90
2018-04-22T03:53:17.600Z,15.90
2018-04-22T03:55:45.656Z,15.90
2018-04-22T03:58:13.721Z,16.00
2018-04-22T04:00:41.795Z,16.00
2018-04-22T04:03:09.853Z,15.90
2018-04-22T04:05:37.916Z,15.80
2018-04-22T04:08:05.982Z,15.80
2018-04-22T04:10:34.060Z,15.80
2018-04-22T04:13:02.120Z,15.80
2018-04-22T04:15:30.179Z,15.80
2018-04-22T04:21:35.360Z,15.80
2018-04-22T04:27:40.137Z,15.90
2018-04-22T04:30:08.208Z,15.80
2018-04-22T04:32:36.281Z,15.90
2018-04-22T04:35:04.355Z,15.90
2018-04-22T04:37:32.419Z,15.90
2018-04-22T04:40:00.550Z,15.80
2018-04-22T04:42:28.604Z,16.00
2018-04-22T04:44:56.673Z,16.00
2018-04-22T04:47:24.740Z,15.90
2018-04-22T04:49:53.938Z,15.80
2018-04-22T04:52:22.011Z,15.70
2018-04-22T04:54:50.068Z,15.70
2018-04-22T04:57:18.140Z,15.60
2018-04-22T04:59:46.196Z,15.40
2018-04-22T05:02:14.273Z,15.30
2018-04-22T05:04:42.336Z,15.30
2018-04-22T05:07:10.407Z,15.50
2018-04-22T05:09:38.456Z,15.80
2018-04-22T05:12:06.536Z,15.80
2018-04-22T05:14:34.606Z,15.90
2018-04-22T05:17:02.681Z,15.90
2018-04-22T05:19:30.740Z,16.00
2018-04-22T05:21:59.737Z,16.00
2018-04-22T05:24:28.617Z,15.70
2018-04-22T05:26:56.691Z,15.70
2018-04-22T05:29:24.744Z,15.40
2018-04-22T05:31:52.826Z,16.00
2018-04-22T05:34:20.889Z,16.70
2018-04-22T05:36:48.952Z,17.00
2018-04-22T05:39:17.016Z,16.80
2018-04-22T05:41:45.113Z,16.80
2018-04-22T05:44:13.152Z,17.20
2018-04-22T05:46:41.228Z,16.90
2018-04-22T05:49:09.290Z,16.60
2018-04-22T05:51:37.356Z,16.70
2018-04-22T05:54:05.429Z,16.80
2018-04-22T05:56:33.497Z,17.10
2018-04-22T05:59:01.556Z,17.60
2018-04-22T06:01:29.624Z,17.90
2018-04-22T06:03:57.684Z,18.30
2018-04-22T06:06:25.751Z,18.70
2018-04-22T06:08:53.816Z,19.10
2018-04-22T06:11:21.888Z,19.50
2018-04-22T06:13:49.948Z,19.90
2018-04-22T06:16:18.017Z,20.10
2018-04-22T06:18:46.104Z,19.90
2018-04-22T06:21:14.181Z,19.30
2018-04-22T06:23:42.236Z,19.30
2018-04-22T06:26:10.307Z,19.40
2018-04-22T06:28:38.371Z,19.80
2018-04-22T06:31:06.442Z,20.00
2018-04-22T06:33:34.515Z,20.10
2018-04-22T06:36:02.592Z,19.90
2018-04-22T06:38:30.661Z,19.50
2018-04-22T06:40:58.733Z,19.40
2018-04-22T06:43:26.807Z,19.10
2018-04-22T06:45:55.492Z,18.90
2018-04-22T06:48:23.562Z,18.80
2018-04-22T06:50:51.624Z,19.00
2018-04-22T06:53:19.761Z,19.10
2018-04-22T06:55:47.784Z,19.00
2018-04-22T06:58:15.848Z,19.20
2018-04-22T07:00:43.914Z,19.20
2018-04-22T07:03:11.978Z,19.50
2018-04-22T07:05:40.064Z,19.50
2018-04-22T07:08:08.988Z,19.80
2018-04-22T07:10:37.060Z,19.80
2018-04-22T07:13:05.139Z,19.50
2018-04-22T07:15:33.234Z,19.80
2018-04-22T07:18:01.324Z,19.80
2018-04-22T07:20:29.397Z,20.00
2018-04-22T07:22:57.464Z,20.00
2018-04-22T07:25:25.909Z,19.90
2018-04-22T07:27:53.974Z,19.90
2018-04-22T07:30:22.058Z,20.10
2018-04-22T07:32:50.117Z,20.10
2018-04-22T07:35:18.172Z,20.40
2018-04-22T07:37:46.252Z,20.50
2018-04-22T07:40:14.332Z,20.50
2018-04-22T07:42:42.398Z,20.80
2018-04-22T07:45:10.449Z,21.00
2018-04-22T07:47:38.516Z,21.10
2018-04-22T07:50:06.581Z,21.30
2018-04-22T07:52:34.654Z,21.30
2018-04-22T07:55:02.708Z,21.40
2018-04-22T07:57:30.797Z,21.50
2018-04-22T07:59:58.869Z,21.60
2018-04-22T08:02:26.948Z,21.70
2018-04-22T08:04:56.148Z,21.90
2018-04-22T08:07:24.219Z,22.00
2018-04-22T08:09:52.300Z,22.00
2018-04-22T08:12:20.381Z,22.00
2018-04-22T08:14:48.452Z,22.00
2018-04-22T08:17:16.552Z,22.00
2018-04-22T08:19:44.604Z,22.00
2018-04-22T08:22:12.684Z,22.20
2018-04-22T08:24:40.753Z,22.20
2018-04-22T08:27:08.837Z,22.20
2018-04-22T08:29:36.925Z,22.20
2018-04-22T08:32:04.994Z,22.10
2018-04-22T08:34:33.956Z,22.30
2018-04-22T08:37:02.042Z,22.30
2018-04-22T08:39:30.094Z,22.60
2018-04-22T08:41:58.156Z,22.60
2018-04-22T08:44:26.590Z,22.70
2018-04-22T08:46:54.664Z,22.70
2018-04-22T08:49:22.719Z,22.90
2018-04-22T08:51:50.784Z,22.90
2018-04-22T08:54:19.877Z,22.90
2018-04-22T08:56:47.932Z,22.80
2018-04-22T08:59:15.987Z,22.90
2018-04-22T09:01:44.067Z,23.10
2018-04-22T09:04:12.129Z,23.30
2018-04-22T09:06:40.204Z,23.40
2018-04-22T09:09:08.272Z,23.50
2018-04-22T09:11:36.344Z,23.80
2018-04-22T09:14:04.435Z,24.20
2018-04-22T09:16:32.508Z,24.00
2018-04-22T09:19:00.581Z,24.10
2018-04-22T09:21:29.524Z,24.30
2018-04-22T09:23:57.585Z,24.20
2018-04-22T09:26:26.784Z,24.30
2018-04-22T09:28:54.855Z,24.80
2018-04-22T09:31:22.908Z,24.90
2018-04-22T09:33:50.968Z,24.40
2018-04-22T09:36:19.024Z,24.20
2018-04-22T09:38:47.111Z,24.20
2018-04-22T09:41:15.504Z,24.40
2018-04-22T09:43:43.605Z,24.80
2018-04-22T09:46:11.661Z,24.60
2018-04-22T09:48:39.736Z,24.40
2018-04-22T09:51:07.796Z,24.70
2018-04-22T09:53:36.651Z,24.80
2018-04-22T09:56:04.775Z,25.00
2018-04-22T09:58:32.828Z,25.20
2018-04-22T10:01:00.912Z,25.10
2018-04-22T10:03:30.846Z,25.40
2018-04-22T10:06:01.744Z,25.60
2018-04-22T10:08:29.812Z,25.90
2018-04-22T10:10:58.223Z,26.00
2018-04-22T10:13:27.395Z,26.50
2018-04-22T10:15:55.464Z,26.60
2018-04-22T10:18:23.528Z,26.00
2018-04-22T10:20:51.589Z,26.20
2018-04-22T10:23:19.658Z,26.10
2018-04-22T10:25:47.735Z,26.20
2018-04-22T10:28:15.807Z,26.30
2018-04-22T10:30:43.858Z,26.40
2018-04-22T10:33:11.927Z,26.30
2018-04-22T10:35:40.024Z,26.20
2018-04-22T10:38:08.088Z,26.40
2018-04-22T10:40:36.144Z,25.90
2018-04-22T10:43:04.212Z,26.00
2018-04-22T10:45:32.273Z,25.90
2018-04-22T10:48:00.405Z,25.80
2018-04-22T10:50:28.768Z,26.10
2018-04-22T10:52:57.692Z,26.30
2018-04-22T10:55:25.754Z,26.50
2018-04-22T10:57:53.901Z,26.40
2018-04-22T11:00:21.884Z,26.60
2018-04-22T11:02:49.961Z,27.10
2018-04-22T11:05:18.033Z,27.90
2018-04-22T11:07:46.087Z,28.30
2018-04-22T11:10:14.149Z,28.10
2018-04-22T11:12:42.200Z,28.10
2018-04-22T11:15:10.272Z,28.80
2018-04-22T11:17:38.337Z,28.90
2018-04-22T11:20:06.412Z,28.80
2018-04-22T11:22:34.472Z,29.00
2018-04-22T11:25:02.548Z,28.90
2018-04-22T11:27:30.612Z,28.50
2018-04-22T11:29:58.681Z,29.10
2018-04-22T11:32:27.853Z,29.70
2018-04-22T11:34:55.913Z,30.20
2018-04-22T11:37:23.982Z,30.60
2018-04-22T11:39:52.044Z,30.20
2018-04-22T11:42:20.105Z,28.90
2018-04-22T11:44:48.163Z,27.70
2018-04-22T11:47:16.219Z,27.10
2018-04-22T11:49:44.284Z,27.20
2018-04-22T11:52:12.346Z,28.70
2018-04-22T11:54:40.417Z,29.60
2018-04-22T11:57:08.472Z,30.00
2018-04-22T11:59:36.539Z,29.60
2018-04-22T12:02:04.591Z,29.40
2018-04-22T12:04:32.660Z,28.90
2018-04-22T12:07:00.730Z,29.30
2018-04-22T12:09:29.573Z,30.00
2018-04-22T12:11:58.468Z,29.90
2018-04-22T12:14:26.531Z,29.80
2018-04-22T12:16:54.604Z,30.40
2018-04-22T12:19:22.651Z,31.20
2018-04-22T12:21:50.713Z,32.60
2018-04-22T12:24:18.769Z,33.40
2018-04-22T12:26:46.829Z,33.80
2018-04-22T12:29:14.911Z,32.90
2018-04-22T12:31:42.970Z,31.20
2018-04-22T12:34:11.017Z,30.20
2018-04-22T12:36:39.080Z,29.40
2018-04-22T12:39:07.142Z,29.30
2018-04-22T12:41:35.213Z,30.60
2018-04-22T12:44:03.373Z,31.30
2018-04-22T12:46:31.425Z,32.50
2018-04-22T12:48:59.491Z,32.90
2018-04-22T12:51:28.671Z,32.20
2018-04-22T12:53:56.736Z,32.10
2018-04-22T12:56:24.784Z,32.20
2018-04-22T12:58:52.846Z,32.00
2018-04-22T13:01:20.917Z,32.60
2018-04-22T13:03:48.972Z,32.40
2018-04-22T13:06:17.036Z,32.20
2018-04-22T13:08:45.089Z,31.20
2018-04-22T13:11:13.152Z,29.80
2018-04-22T13:13:41.208Z,29.00
2018-04-22T13:16:09.292Z,28.90
2018-04-22T13:18:37.400Z,27.80
2018-04-22T13:21:05.466Z,26.90
2018-04-22T13:23:33.512Z,26.50
2018-04-22T13:26:01.583Z,26.40
2018-04-22T13:28:29.844Z,26.30
2018-04-22T13:30:59.058Z,26.40
2018-04-22T13:33:28.236Z,26.90
2018-04-22T13:35:56.300Z,28.10
2018-04-22T13:38:24.357Z,28.00
2018-04-22T13:40:52.417Z,27.60
2018-04-22T13:43:20.473Z,27.40
2018-04-22T13:45:48.572Z,27.50
2018-04-22T13:48:16.631Z,27.60
2018-04-22T13:50:44.677Z,27.70
2018-04-22T13:53:12.736Z,28.00
2018-04-22T13:55:40.788Z,28.30
2018-04-22T13:58:08.869Z,28.80
2018-04-22T14:00:36.921Z,28.70
2018-04-22T14:03:04.980Z,29.00
2018-04-22T14:05:33.047Z,29.10
2018-04-22T14:08:01.107Z,29.60
2018-04-22T14:10:29.695Z,29.90
2018-04-22T14:12:57.752Z,30.20
2018-04-22T14:15:25.806Z,30.20
2018-04-22T14:17:53.880Z,30.10
2018-04-22T14:20:21.934Z,29.90
2018-04-22T14:22:50.005Z,29.50
2018-04-22T14:25:18.094Z,29.70
2018-04-22T14:27:46.136Z,29.40
2018-04-22T14:30:14.196Z,29.30
2018-04-22T14:32:42.265Z,29.00
2018-04-22T14:35:10.323Z,29.20
2018-04-22T14:37:38.393Z,28.70
2018-04-22T14:40:06.440Z,28.90
2018-04-22T14:42:34.511Z,29.20
2018-04-22T14:45:20.150Z,28.80
2018-04-22T14:47:48.207Z,28.60
2018-04-22T14:50:16.273Z,28.10
2018-04-22T14:52:44.332Z,27.90
2018-04-22T14:55:12.380Z,28.10
2018-04-22T14:57:40.440Z,28.20
2018-04-22T15:00:08.492Z,28.50
2018-04-22T15:02:36.556Z,28.80
2018-04-22T15:05:04.621Z,29.10
2018-04-22T15:07:32.738Z,29.10
2018-04-22T15:10:00.789Z,29.20
2018-04-22T15:12:29.978Z,28.80
2018-04-22T15:14:58.024Z,28.40
2018-04-22T15:17:26.076Z,28.70
2018-04-22T15:19:54.132Z,28.90
2018-04-22T15:22:22.197Z,28.90
2018-04-22T15:24:50.260Z,28.40
2018-04-22T15:27:18.326Z,28.30
2018-04-22T15:29:46.380Z,28.80
2018-04-22T15:32:14.437Z,29.40
2018-04-22T15:34:42.494Z,29.80
2018-04-22T15:37:10.564Z,29.80
2018-04-22T15:39:38.624Z,29.70
2018-04-22T15:42:06.701Z,28.90
2018-04-22T15:44:34.754Z,28.70
2018-04-22T15:47:02.813Z,28.40
2018-04-22T15:49:30.869Z,28.30
2018-04-22T15:52:00.061Z,28.60
2018-04-22T15:54:28.634Z,28.80
2018-04-22T15:56:56.698Z,29.00
2018-04-22T15:59:24.756Z,29.80
2018-04-22T16:01:52.837Z,30.10
2018-04-22T16:04:20.908Z,30.00
2018-04-22T16:06:48.980Z,29.60
2018-04-22T16:09:17.048Z,29.20
2018-04-22T16:11:45.108Z,29.20
2018-04-22T16:14:13.179Z,29.00
2018-04-22T16:16:41.223Z,28.80
2018-04-22T16:19:09.284Z,28.80
2018-04-22T16:21:37.345Z,29.20
2018-04-22T16:24:05.404Z,29.20
2018-04-22T16:26:33.452Z,28.80
2018-04-22T16:29:01.521Z,28.40
2018-04-22T16:31:30.436Z,28.10
2018-04-22T16:33:58.498Z,28.40
2018-04-22T16:36:26.551Z,28.60
2018-04-22T16:38:54.640Z,28.50
2018-04-22T16:41:22.714Z,28.50
2018-04-22T16:43:50.766Z,28.30
2018-04-22T16:46:18.825Z,28.20
2018-04-22T16:48:46.887Z,28.30
2018-04-22T16:51:14.941Z,28.00
2018-04-22T16:53:43.027Z,28.00
2018-04-22T16:56:11.080Z,27.60
2018-04-22T16:58:39.132Z,27.20
2018-04-22T17:01:07.207Z,27.30
2018-04-22T17:03:35.279Z,27.40
2018-04-22T17:06:03.335Z,27.40
2018-04-22T17:08:31.396Z,27.30
2018-04-22T17:11:00.568Z,27.00
2018-04-22T17:13:29.544Z,26.80
2018-04-22T17:15:57.608Z,26.30
2018-04-22T17:18:25.678Z,26.00
2018-04-22T17:20:53.747Z,25.90
2018-04-22T17:23:21.799Z,25.70
2018-04-22T17:25:49.848Z,25.60
2018-04-22T17:28:17.948Z,25.50
2018-04-22T17:30:45.988Z,25.30
2018-04-22T17:33:14.054Z,25.40
2018-04-22T17:35:42.112Z,25.20
2018-04-22T17:38:10.174Z,25.00
2018-04-22T17:40:38.228Z,24.70
2018-04-22T17:43:06.324Z,24.70
2018-04-22T17:45:34.372Z,24.50
2018-04-22T17:48:02.452Z,24.30
2018-04-22T17:50:30.969Z,24.20
2018-04-22T17:52:59.064Z,24.10
2018-04-22T17:55:28.217Z,23.90
2018-04-22T17:57:56.292Z,23.90
2018-04-22T18:00:24.346Z,23.80
2018-04-22T18:02:52.421Z,23.60
2018-04-22T18:05:20.476Z,23.50
2018-04-22T18:07:48.548Z,23.50
2018-04-22T18:10:16.609Z,23.30
2018-04-22T18:12:44.681Z,23.20
2018-04-22T18:15:12.736Z,23.10
2018-04-22T18:17:40.788Z,23.00
2018-04-22T18:20:08.848Z,22.80
2018-04-22T18:25:11.344Z,22.70
2018-04-22T18:27:39.448Z,22.60
2018-04-22T18:30:07.468Z,22.70
2018-04-22T18:32:35.536Z,22.60
2018-04-22T18:35:03.600Z,22.50
2018-04-22T18:37:31.900Z,22.50
2018-04-22T18:40:00.893Z,22.40
2018-04-22T18:42:28.948Z,22.30
2018-04-22T18:44:57.028Z,22.40
2018-04-22T18:47:25.083Z,22.40
2018-04-22T18:49:53.153Z,22.40
2018-04-22T18:52:21.200Z,22.30
2018-04-22T18:54:49.268Z,22.10
2018-04-22T18:57:17.317Z,22.00
2018-04-22T18:59:45.382Z,22.00
2018-04-22T19:02:13.447Z,22.00
2018-04-22T19:04:41.517Z,21.90
2018-04-22T19:07:09.598Z,21.80
2018-04-22T19:09:37.671Z,21.70
2018-04-22T19:12:05.724Z,21.60
2018-04-22T19:14:33.791Z,21.50
2018-04-22T19:17:02.051Z,21.40
2018-04-22T19:19:30.124Z,21.30
2018-04-22T19:21:58.515Z,21.30
2018-04-22T19:24:26.577Z,21.20
2018-04-22T19:26:54.619Z,21.20
2018-04-22T19:29:22.681Z,21.10
2018-04-22T19:31:50.732Z,21.20
2018-04-22T19:34:18.798Z,21.30
2018-04-22T19:36:46.840Z,21.60
2018-04-22T19:39:14.920Z,21.70
2018-04-22T19:41:42.993Z,21.70
2018-04-22T19:44:11.053Z,21.40
2018-04-22T19:46:39.112Z,21.30
2018-04-22T19:49:07.176Z,21.10
2018-04-22T19:51:35.261Z,20.90
2018-04-22T19:54:03.329Z,20.60
2018-04-22T19:56:32.156Z,20.60
2018-04-22T19:59:00.220Z,21.00
2018-04-22T20:01:28.288Z,21.10
2018-04-22T20:03:56.340Z,21.10
2018-04-22T20:06:24.400Z,21.00
2018-04-22T20:08:52.472Z,20.90
2018-04-22T20:11:20.524Z,20.70
2018-04-22T20:13:48.595Z,20.50
2018-04-22T20:16:16.645Z,20.40
2018-04-22T20:18:44.704Z,20.50
2018-04-22T20:21:12.768Z,20.60
2018-04-22T20:23:40.844Z,20.60
2018-04-22T20:26:08.896Z,20.60
2018-04-22T20:28:36.939Z,20.70
2018-04-22T20:31:05.016Z,20.70
2018-04-22T20:33:33.077Z,20.80
2018-04-22T20:36:01.132Z,20.90
2018-04-22T20:38:29.188Z,20.90
2018-04-22T20:40:57.237Z,20.80
2018-04-22T20:43:25.288Z,20.70
2018-04-22T20:45:53.352Z,20.70
2018-04-22T20:48:21.412Z,20.80
2018-04-22T20:50:49.474Z,21.20
2018-04-22T20:53:17.521Z,21.20
2018-04-22T20:55:45.576Z,21.10
2018-04-22T20:58:13.633Z,21.00
2018-04-22T21:00:41.705Z,21.00
2018-04-22T21:03:09.749Z,20.90
2018-04-22T21:05:37.808Z,20.90
2018-04-22T21:08:05.852Z,20.80
2018-04-22T21:10:33.928Z,20.70
2018-04-22T21:13:01.985Z,20.70
2018-04-22T21:15:30.056Z,20.70
2018-04-22T21:17:58.120Z,20.50
2018-04-22T21:20:26.188Z,20.40
2018-04-22T21:22:54.238Z,20.40
2018-04-22T21:25:22.305Z,20.40
2018-04-22T21:27:50.356Z,20.20
2018-04-22T21:30:18.416Z,20.20
2018-04-22T21:32:46.493Z,20.20
2018-04-22T21:35:14.552Z,20.10
2018-04-22T21:37:42.607Z,20.10
2018-04-22T21:40:10.669Z,20.30
2018-04-22T21:42:38.715Z,20.50
2018-04-22T21:45:06.781Z,20.30
2018-04-22T21:47:34.853Z,20.20
2018-04-22T21:50:02.919Z,20.20
2018-04-22T21:52:30.970Z,20.10
2018-04-22T21:54:59.032Z,20.00
2018-04-22T21:57:27.097Z,19.80
2018-04-22T21:59:55.172Z,19.90
2018-04-22T22:02:23.228Z,19.80
2018-04-22T22:04:51.290Z,19.90
2018-04-22T22:07:19.356Z,19.90
2018-04-22T22:09:47.433Z,19.90
2018-04-22T22:12:15.484Z,19.80
2018-04-22T22:14:43.567Z,19.70
2018-04-22T22:17:11.640Z,19.60
2018-04-22T22:19:39.701Z,19.60
2018-04-22T22:22:07.753Z,19.70
2018-04-22T22:24:35.824Z,19.60
2018-04-22T22:27:03.880Z,19.50
2018-04-22T22:29:31.935Z,19.50
2018-04-22T22:31:59.992Z,19.30
2018-04-22T22:34:28.048Z,19.40
2018-04-22T22:36:56.088Z,19.30
2018-04-22T22:39:24.151Z,19.30
2018-04-22T22:41:52.201Z,19.20
2018-04-22T22:44:20.256Z,19.30
2018-04-22T22:46:48.310Z,19.20
2018-04-22T22:49:16.364Z,19.20
2018-04-22T22:51:44.444Z,19.20
2018-04-22T22:54:12.501Z,19.20
2018-04-22T22:56:40.549Z,19.10
2018-04-22T22:59:08.610Z,19.10
2018-04-22T23:01:36.712Z,19.10
2018-04-22T23:04:04.773Z,19.00
2018-04-22T23:06:32.846Z,19.00
2018-04-22T23:09:00.960Z,18.90
2018-04-22T23:11:29.020Z,18.90
2018-04-22T23:13:57.068Z,18.80
2018-04-22T23:16:25.134Z,18.90
2018-04-22T23:18:53.172Z,18.80
2018-04-22T23:21:21.224Z,18.80
2018-04-22T23:23:49.276Z,18.70
2018-04-22T23:26:17.336Z,18.80
2018-04-22T23:28:45.382Z,18.80
2018-04-22T23:31:13.460Z,18.70
2018-04-22T23:33:41.512Z,18.70
2018-04-22T23:36:09.573Z,18.70
2018-04-22T23:38:37.625Z,18.60
2018-04-22T23:41:05.676Z,18.70
2018-04-22T23:43:33.720Z,18.60
2018-04-22T23:46:01.786Z,18.50
2018-04-22T23:48:29.852Z,18.50
2018-04-22T23:50:57.939Z,18.50
2018-04-22T23:53:25.981Z,18.40
2018-04-22T23:55:54.041Z,18.40
2018-04-22T23:58:22.112Z,18.20
